Time;durP1;ratioP1;P1;durP2;ratioP2;P2;SDS_P1;SDS_P2;PMS_P1;PMS_P2;Temp;Humidity;BMP_temperature;BMP_pressure;BME280_temperature;BME280_humidity;BME280_pressure;Samples;Min_cycle;Max_cycle;Signal;HPM_P1;HPM_P2
2022/08/30 00:04:19;;;;;;;;;;;;;;;17.39;58.99316;102316.2;;;;-74
2022/08/30 00:09:18;;;;;;;;;;;;;;;17.36;58.79785;102314.5;;;;-75
2022/08/30 00:14:19;;;;;;;;;;;;;;;17.32;58.90625;102313;;;;-75
2022/08/30 00:19:19;;;;;;;;;;;;;;;17.28;58.74121;102309.3;;;;-75
2022/08/30 00:24:18;;;;;;;;;;;;;;;17.25;58.64746;102309.4;;;;-76
2022/08/30 00:29:19;;;;;;;;;;;;;;;17.23;58.54297;102304.7;;;;-75
2022/08/30 00:29:53;;;;;;;2.7;1.3;;;;;;;;;;;;;-75
2022/08/30 00:34:21;;;;;;;;;;;;;;;17.19;58.54883;102299.8;;;;-76
2022/08/30 00:39:18;;;;;;;;;;;;;;;17.16;58.46582;102305.4;;;;-76
2022/08/30 00:44:19;;;;;;;;;;;;;;;17.13;58.40527;102302.2;;;;-76
2022/08/30 00:49:21;;;;;;;;;;;;;;;17.09;58.37695;102305.6;;;;-75
2022/08/30 00:54:19;;;;;;;;;;;;;;;17.07;58.54395;102308.1;;;;-74
2022/08/30 00:59:20;;;;;;;;;;;;;;;17.07;58.81543;102308;;;;-75
2022/08/30 00:59:55;;;;;;;2.5;1.4;;;;;;;;;;;;;-75
2022/08/30 01:04:20;;;;;;;;;;;;;;;17.05;58.88086;102297.7;;;;-76
2022/08/30 01:09:20;;;;;;;;;;;;;;;17.05;59.23145;102304;;;;-75
2022/08/30 01:14:22;;;;;;;;;;;;;;;17.04;59.38867;102308.3;;;;-75
2022/08/30 01:19:24;;;;;;;;;;;;;;;17.03;59.63574;102312.6;;;;-75
2022/08/30 01:24:21;;;;;;;;;;;;;;;17.04;59.95313;102316.7;;;;-74
2022/08/30 01:29:22;;;;;;;;;;;;;;;17.04;60.11035;102313;;;;-75
2022/08/30 01:29:57;;;;;;;2.9;1.5;;;;;;;;;;;;;-74
2022/08/30 01:34:19;;;;;;;;;;;;;;;17.05;59.78516;102307.8;;;;-75
2022/08/30 01:39:21;;;;;;;;;;;;;;;17.04;60.04395;102306.6;;;;-74
2022/08/30 01:44:19;;;;;;;;;;;;;;;17.04;59.88379;102309.6;;;;-74
2022/08/30 01:49:20;;;;;;;;;;;;;;;17.03;59.82617;102312.8;;;;-75
2022/08/30 01:54:19;;;;;;;;;;;;;;;17;59.9248;102315;;;;-76
2022/08/30 01:59:19;;;;;;;;;;;;;;;16.97;59.74023;102311.2;;;;-76
2022/08/30 01:59:59;;;;;;;3.4;1.5;;;;;;;;;;;;;-74
2022/08/30 02:04:19;;;;;;;;;;;;;;;16.94;59.56738;102316.3;;;;-74
2022/08/30 02:09:18;;;;;;;;;;;;;;;16.92;59.47266;102315.6;;;;-75
2022/08/30 02:14:19;;;;;;;;;;;;;;;16.88;59.55957;102313.4;;;;-76
2022/08/30 02:19:19;;;;;;;;;;;;;;;16.85;59.66797;102312.8;;;;-75
2022/08/30 02:24:19;;;;;;;;;;;;;;;16.83;60.41016;102310.7;;;;-77
2022/08/30 02:29:19;;;;;;;;;;;;;;;16.8;59.89844;102314.6;;;;-75
2022/08/30 02:30:01;;;;;;;3.1;1.5;;;;;;;;;;;;;-74
2022/08/30 02:34:19;;;;;;;;;;;;;;;16.76;59.88086;102309.2;;;;-74
2022/08/30 02:39:21;;;;;;;;;;;;;;;16.75;59.87891;102305.5;;;;-75
2022/08/30 02:44:19;;;;;;;;;;;;;;;16.74;59.67383;102304.6;;;;-75
2022/08/30 02:49:19;;;;;;;;;;;;;;;16.71;59.89746;102303.2;;;;-75
2022/08/30 02:54:19;;;;;;;;;;;;;;;16.67;59.8125;102294.7;;;;-76
2022/08/30 02:59:19;;;;;;;;;;;;;;;16.63;59.64941;102286.5;;;;-75
2022/08/30 03:00:05;;;;;;;3.6;1.5;;;;;;;;;;;;;-76
2022/08/30 03:04:19;;;;;;;;;;;;;;;16.6;59.5332;102286.9;;;;-74
2022/08/30 03:09:18;;;;;;;;;;;;;;;16.55;59.44629;102282.9;;;;-74
2022/08/30 03:14:19;;;;;;;;;;;;;;;16.54;59.51172;102284.3;;;;-73
2022/08/30 03:19:18;;;;;;;;;;;;;;;16.5;59.46191;102289;;;;-74
2022/08/30 03:24:19;;;;;;;;;;;;;;;16.46;59.54688;102290.6;;;;-75
2022/08/30 03:29:18;;;;;;;;;;;;;;;16.43;59.47559;102287;;;;-74
2022/08/30 03:30:05;;;;;;;2.4;1.4;;;;;;;;;;;;;-75
2022/08/30 03:34:20;;;;;;;;;;;;;;;16.4;59.46094;102289.3;;;;-74
2022/08/30 03:39:20;;;;;;;;;;;;;;;16.37;59.5127;102279.6;;;;-74
2022/08/30 03:44:18;;;;;;;;;;;;;;;16.35;59.75781;102287.8;;;;-75
2022/08/30 03:49:23;;;;;;;;;;;;;;;16.31;59.84375;102287.2;;;;-75
2022/08/30 03:54:18;;;;;;;;;;;;;;;16.33;59.5625;102291.6;;;;-74
2022/08/30 03:59:19;;;;;;;;;;;;;;;16.28;59.30957;102287.7;;;;-77
2022/08/30 04:00:08;;;;;;;2.4;1.4;;;;;;;;;;;;;-74
2022/08/30 04:04:19;;;;;;;;;;;;;;;16.26;59.33984;102290.4;;;;-75
2022/08/30 04:09:19;;;;;;;;;;;;;;;16.23;59.34766;102291.8;;;;-75
2022/08/30 04:14:18;;;;;;;;;;;;;;;16.2;59.4668;102297.2;;;;-74
2022/08/30 04:19:18;;;;;;;;;;;;;;;16.17;59.35156;102297.5;;;;-75
2022/08/30 04:24:18;;;;;;;;;;;;;;;16.14;59.33496;102295.3;;;;-75
2022/08/30 04:29:21;;;;;;;;;;;;;;;16.11;59.56738;102300.5;;;;-76
2022/08/30 04:30:09;;;;;;;2.8;1.6;;;;;;;;;;;;;-76
2022/08/30 04:34:18;;;;;;;;;;;;;;;16.1;59.35156;102303;;;;-75
2022/08/30 04:39:21;;;;;;;;;;;;;;;16.09;59.56445;102307.4;;;;-75
2022/08/30 04:44:18;;;;;;;;;;;;;;;16.05;59.54785;102309.1;;;;-75
2022/08/30 04:49:21;;;;;;;;;;;;;;;16.04;59.80664;102310.3;;;;-75
2022/08/30 04:54:18;;;;;;;;;;;;;;;16.02;59.79102;102307.9;;;;-75
2022/08/30 04:59:19;;;;;;;;;;;;;;;16.01;59.81445;102314.1;;;;-75
2022/08/30 05:00:13;;;;;;;2.9;1.5;;;;;;;;;;;;;-76
2022/08/30 05:04:18;;;;;;;;;;;;;;;16.02;59.96191;102318.1;;;;-75
2022/08/30 05:09:20;;;;;;;;;;;;;;;16.03;60.40234;102314.8;;;;-75
2022/08/30 05:14:18;;;;;;;;;;;;;;;16.06;60.48535;102316.9;;;;-76
2022/08/30 05:19:18;;;;;;;;;;;;;;;16.07;61.3877;102322.6;;;;-76
2022/08/30 05:24:19;;;;;;;;;;;;;;;16.1;61.07617;102329.2;;;;-77
2022/08/30 05:29:19;;;;;;;;;;;;;;;16.13;61.66895;102336.8;;;;-76
2022/08/30 05:30:13;;;;;;;3.3;1.8;;;;;;;;;;;;;-75
2022/08/30 05:34:19;;;;;;;;;;;;;;;16.19;61.51758;102335.9;;;;-76
2022/08/30 05:39:18;;;;;;;;;;;;;;;16.22;61.85938;102339;;;;-74
2022/08/30 05:44:19;;;;;;;;;;;;;;;16.26;62.2041;102336.6;;;;-78
2022/08/30 05:49:19;;;;;;;;;;;;;;;16.31;61.53516;102340.7;;;;-75
2022/08/30 05:54:19;;;;;;;;;;;;;;;16.35;61.30469;102341.4;;;;-76
2022/08/30 05:59:19;;;;;;;;;;;;;;;16.43;61.68652;102342.8;;;;-76
2022/08/30 06:00:16;;;;;;;4.5;2;;;;;;;;;;;;;-76
2022/08/30 06:04:21;;;;;;;;;;;;;;;16.71;61.3877;102345.7;;;;-74
2022/08/30 06:09:18;;;;;;;;;;;;;;;17.11;60.93359;102342.3;;;;-75
2022/08/30 06:14:19;;;;;;;;;;;;;;;17.54;60.07617;102346.9;;;;-75
2022/08/30 06:19:19;;;;;;;;;;;;;;;17.92;59.62988;102348.8;;;;-75
2022/08/30 06:24:19;;;;;;;;;;;;;;;18.22;59.2168;102349.4;;;;-75
2022/08/30 06:29:19;;;;;;;;;;;;;;;18.51;58.56543;102352.5;;;;-74
2022/08/30 06:30:17;;;;;;;4.1;1.7;;;;;;;;;;;;;-74
2022/08/30 06:34:19;;;;;;;;;;;;;;;18.82;58.06152;102349.8;;;;-76
2022/08/30 06:39:18;;;;;;;;;;;;;;;19.14;57.19336;102348.1;;;;-76
2022/08/30 06:44:20;;;;;;;;;;;;;;;19.28;56.88184;102357.4;;;;-74
2022/08/30 06:49:19;;;;;;;;;;;;;;;19.3;57.10059;102357.2;;;;-75
2022/08/30 06:54:19;;;;;;;;;;;;;;;19.39;56.8291;102358.3;;;;-76
2022/08/30 06:59:19;;;;;;;;;;;;;;;19.67;56.19238;102358.8;;;;-75
2022/08/30 07:00:20;;;;;;;3.6;1.4;;;;;;;;;;;;;-76
2022/08/30 07:04:18;;;;;;;;;;;;;;;19.97;55.36426;102360.2;;;;-76
2022/08/30 07:09:18;;;;;;;;;;;;;;;20.25;54.74902;102358.7;;;;-74
2022/08/30 07:14:18;;;;;;;;;;;;;;;20.46;54.25098;102359.8;;;;-75
2022/08/30 07:19:19;;;;;;;;;;;;;;;20.66;53.64746;102355.9;;;;-75
2022/08/30 07:24:19;;;;;;;;;;;;;;;20.85;53.22461;102357.4;;;;-75
2022/08/30 07:29:20;;;;;;;;;;;;;;;21.04;52.55078;102360.3;;;;-75
2022/08/30 07:30:21;;;;;;;2.6;1.1;;;;;;;;;;;;;-75
2022/08/30 07:34:20;;;;;;;;;;;;;;;21.33;51.97852;102361.9;;;;-75
2022/08/30 07:39:18;;;;;;;;;;;;;;;21.57;51.46875;102359;;;;-74
2022/08/30 07:44:19;;;;;;;;;;;;;;;21.86;50.94238;102365.4;;;;-75
2022/08/30 07:49:18;;;;;;;;;;;;;;;22.19;50.16602;102362.3;;;;-75
2022/08/30 07:54:18;;;;;;;;;;;;;;;22.43;49.65234;102375.7;;;;-74
2022/08/30 07:59:21;;;;;;;;;;;;;;;22.74;49.42285;102371.3;;;;-75
2022/08/30 08:00:23;;;;;;;2.1;0.9;;;;;;;;;;;;;-74
2022/08/30 08:04:19;;;;;;;;;;;;;;;23;48.5332;102370.6;;;;-76
2022/08/30 08:09:18;;;;;;;;;;;;;;;23.24;47.97266;102370.9;;;;-76
2022/08/30 08:14:20;;;;;;;;;;;;;;;23.48;47.62988;102367.8;;;;-75
2022/08/30 08:19:19;;;;;;;;;;;;;;;23.75;46.96777;102374.3;;;;-76
2022/08/30 08:24:18;;;;;;;;;;;;;;;24.06;46.48145;102372.6;;;;-75
2022/08/30 08:29:19;;;;;;;;;;;;;;;24.36;46.08594;102377.7;;;;-75
2022/08/30 08:30:26;;;;;;;2.7;1;;;;;;;;;;;;;-75
2022/08/30 08:34:22;;;;;;;;;;;;;;;24.57;45.53125;102373.5;;;;-76
2022/08/30 08:39:19;;;;;;;;;;;;;;;24.82;44.90918;102372.2;;;;-75
2022/08/30 08:44:22;;;;;;;;;;;;;;;25.09;44.62402;102371.6;;;;-75
2022/08/30 08:49:20;;;;;;;;;;;;;;;25.4;44.22656;102373.1;;;;-76
2022/08/30 08:54:22;;;;;;;;;;;;;;;25.67;43.70898;102378.5;;;;-76
2022/08/30 08:59:19;;;;;;;;;;;;;;;25.93;43.50293;102383.4;;;;-76
2022/08/30 09:00:30;;;;;;;2.3;1;;;;;;;;;;;;;-75
2022/08/30 09:04:20;;;;;;;;;;;;;;;26.22;43.09082;102383.8;;;;-74
2022/08/30 09:09:19;;;;;;;;;;;;;;;26.5;42.80371;102384.9;;;;-75
2022/08/30 09:14:27;;;;;;;;;;;;;;;26.78;42.21582;102383.1;;;;-76
2022/08/30 09:19:29;;;;;;;;;;;;;;;27.01;41.7832;102386.9;;;;-74
2022/08/30 09:24:19;;;;;;;;;;;;;;;27.1;41.1875;102386;;;;-76
2022/08/30 09:29:22;;;;;;;;;;;;;;;27.17;40.93848;102390.9;;;;-75
2022/08/30 09:30:34;;;;;;;2.9;1;;;;;;;;;;;;;-78
2022/08/30 09:34:21;;;;;;;;;;;;;;;27.28;41.08789;102389.1;;;;-78
2022/08/30 09:39:23;;;;;;;;;;;;;;;27.46;40.46387;102388.6;;;;-77
2022/08/30 09:44:20;;;;;;;;;;;;;;;27.69;40.4043;102396.8;;;;-77
2022/08/30 09:49:30;;;;;;;;;;;;;;;27.94;39.63477;102384.6;;;;-78
2022/08/30 09:54:27;;;;;;;;;;;;;;;28.09;38.98242;102386.9;;;;-78
2022/08/30 09:59:23;;;;;;;;;;;;;;;28.19;38.94531;102387.5;;;;-78
2022/08/30 10:00:43;;;;;;;4.6;0.9;;;;;;;;;;;;;-79
2022/08/30 10:04:29;;;;;;;;;;;;;;;28.31;38.89648;102380.8;;;;-77
2022/08/30 10:09:26;;;;;;;;;;;;;;;28.54;38.47266;102370.5;;;;-77
2022/08/30 10:14:30;;;;;;;;;;;;;;;28.68;38.41504;102373.1;;;;-79
2022/08/30 10:19:28;;;;;;;;;;;;;;;28.72;38.23145;102382.9;;;;-78
2022/08/30 10:24:21;;;;;;;;;;;;;;;28.84;38.01953;102381.8;;;;-78
2022/08/30 10:29:22;;;;;;;;;;;;;;;28.99;37.39063;102385.7;;;;-79
2022/08/30 10:30:52;;;;;;;3.5;1;;;;;;;;;;;;;-80
2022/08/30 10:34:30;;;;;;;;;;;;;;;29.08;37.02344;102384.4;;;;-78
2022/08/30 10:39:23;;;;;;;;;;;;;;;29.16;36.94922;102386.7;;;;-80
2022/08/30 10:44:23;;;;;;;;;;;;;;;29.28;36.73535;102388.6;;;;-78
2022/08/30 10:49:22;;;;;;;;;;;;;;;29.47;36.27148;102384.2;;;;-77
2022/08/30 10:54:21;;;;;;;;;;;;;;;29.55;36.38281;102379.8;;;;-77
2022/08/30 10:59:19;;;;;;;;;;;;;;;29.75;36.03613;102384.2;;;;-78
2022/08/30 11:00:50;;;;;;;2;0.9;;;;;;;;;;;;;-79
2022/08/30 11:04:34;;;;;;;;;;;;;;;29.94;35.59473;102387.2;;;;-76
2022/08/30 11:09:36;;;;;;;;;;;;;;;30.08;35.41895;102381.6;;;;-78
2022/08/30 11:14:20;;;;;;;;;;;;;;;30.2;35.83789;102379.8;;;;-78
2022/08/30 11:19:24;;;;;;;;;;;;;;;30.47;35.76465;102379.7;;;;-77
2022/08/30 11:24:21;;;;;;;;;;;;;;;30.67;35.14746;102380.1;;;;-78
2022/08/30 11:29:31;;;;;;;;;;;;;;;30.77;35.36523;102380.2;;;;-78
2022/08/30 11:31:05;;;;;;;2;1;;;;;;;;;;;;;-78
2022/08/30 11:34:28;;;;;;;;;;;;;;;30.84;34.47949;102380.3;;;;-79
2022/08/30 11:39:31;;;;;;;;;;;;;;;30.84;34.98438;102372.6;;;;-77
2022/08/30 11:44:30;;;;;;;;;;;;;;;30.97;34.43164;102375.4;;;;-77
2022/08/30 11:49:46;;;;;;;;;;;;;;;31.06;34.40234;102385.6;;;;-78
2022/08/30 11:54:35;;;;;;;;;;;;;;;31.06;34.08496;102377.5;;;;-78
2022/08/30 11:59:25;;;;;;;;;;;;;;;31.1;34.39355;102369.7;;;;-78
2022/08/30 12:01:06;;;;;;;2.3;0.9;;;;;;;;;;;;;-79
2022/08/30 12:04:28;;;;;;;;;;;;;;;31.21;34.03809;102370.5;;;;-77
2022/08/30 12:09:29;;;;;;;;;;;;;;;31.21;33.68555;102359.5;;;;-77
2022/08/30 12:14:29;;;;;;;;;;;;;;;31.2;33.75488;102360.3;;;;-76
2022/08/30 12:19:20;;;;;;;;;;;;;;;31.24;33.46289;102363.7;;;;-77
2022/08/30 12:24:23;;;;;;;;;;;;;;;31.25;33.14746;102364.4;;;;-78
2022/08/30 12:29:24;;;;;;;;;;;;;;;31.25;33.1123;102361.5;;;;-77
2022/08/30 12:31:09;;;;;;;2.3;1;;;;;;;;;;;;;-75
2022/08/30 12:34:25;;;;;;;;;;;;;;;31.32;33.26953;102358.7;;;;-77
2022/08/30 12:39:21;;;;;;;;;;;;;;;31.26;32.64258;102358.9;;;;-77
2022/08/30 12:44:22;;;;;;;;;;;;;;;31.32;33.02344;102358.3;;;;-77
2022/08/30 12:49:21;;;;;;;;;;;;;;;31.31;32.48047;102349.9;;;;-77
2022/08/30 12:54:23;;;;;;;;;;;;;;;31.26;31.86621;102353.1;;;;-77
2022/08/30 12:59:28;;;;;;;;;;;;;;;31.29;31.93848;102345.2;;;;-78
2022/08/30 13:01:17;;;;;;;1.9;0.9;;;;;;;;;;;;;-76
2022/08/30 13:04:22;;;;;;;;;;;;;;;31.25;31.75977;102340.2;;;;-74
2022/08/30 13:09:30;;;;;;;;;;;;;;;31.23;31.69922;102338.3;;;;-77
2022/08/30 13:14:35;;;;;;;;;;;;;;;31.28;31.5625;102330.6;;;;-77
2022/08/30 13:19:32;;;;;;;;;;;;;;;31.29;31.82129;102330.3;;;;-77
2022/08/30 13:24:18;;;;;;;;;;;;;;;31.29;32.03223;102329.2;;;;-77
2022/08/30 13:29:22;;;;;;;;;;;;;;;31.39;31.41602;102319;;;;-77
2022/08/30 13:31:14;;;;;;;3.4;1;;;;;;;;;;;;;-76
2022/08/30 13:34:21;;;;;;;;;;;;;;;31.5;31.11719;102314.5;;;;-78
2022/08/30 13:39:19;;;;;;;;;;;;;;;31.51;31.0127;102303.8;;;;-77
2022/08/30 13:44:18;;;;;;;;;;;;;;;31.53;31.80273;102303.2;;;;-77
2022/08/30 13:49:20;;;;;;;;;;;;;;;31.61;31.24316;102298.8;;;;-77
2022/08/30 13:54:20;;;;;;;;;;;;;;;31.68;30.80078;102302.3;;;;-77
2022/08/30 13:59:19;;;;;;;;;;;;;;;31.63;31.45605;102302.3;;;;-77
2022/08/30 14:01:16;;;;;;;2.1;0.9;;;;;;;;;;;;;-76
2022/08/30 14:04:18;;;;;;;;;;;;;;;31.65;31.3877;102310;;;;-76
2022/08/30 14:09:18;;;;;;;;;;;;;;;31.59;31.32422;102298;;;;-78
2022/08/30 14:14:19;;;;;;;;;;;;;;;31.59;30.90039;102297.4;;;;-77
2022/08/30 14:19:19;;;;;;;;;;;;;;;31.56;31.41602;102296.2;;;;-75
2022/08/30 14:24:18;;;;;;;;;;;;;;;31.53;31.07324;102297.5;;;;-76
2022/08/30 14:29:20;;;;;;;;;;;;;;;31.46;30.77344;102295.5;;;;-78
2022/08/30 14:31:21;;;;;;;1.9;0.8;;;;;;;;;;;;;-78
2022/08/30 14:34:20;;;;;;;;;;;;;;;31.5;31.68359;102295;;;;-76
2022/08/30 14:39:20;;;;;;;;;;;;;;;31.53;30.91992;102290.3;;;;-77
2022/08/30 14:44:21;;;;;;;;;;;;;;;31.64;30.24414;102292.3;;;;-77
2022/08/30 14:49:19;;;;;;;;;;;;;;;31.67;31.01172;102287.7;;;;-76
2022/08/30 14:54:18;;;;;;;;;;;;;;;31.71;30.64941;102285.1;;;;-76
2022/08/30 14:59:18;;;;;;;;;;;;;;;31.7;30.20117;102287.9;;;;-75
2022/08/30 15:01:26;;;;;;;1.9;0.8;;;;;;;;;;;;;-77
2022/08/30 15:04:19;;;;;;;;;;;;;;;31.62;30.87891;102277.3;;;;-75
2022/08/30 15:09:19;;;;;;;;;;;;;;;31.57;30.58105;102274.1;;;;-76
2022/08/30 15:14:18;;;;;;;;;;;;;;;31.49;30.13965;102271.6;;;;-77
2022/08/30 15:19:24;;;;;;;;;;;;;;;31.43;29.94824;102266.8;;;;-76
2022/08/30 15:24:21;;;;;;;;;;;;;;;31.35;30.12012;102272.9;;;;-77
2022/08/30 15:29:19;;;;;;;;;;;;;;;31.27;30.29004;102262.2;;;;-77
2022/08/30 15:31:32;;;;;;;2.3;0.8;;;;;;;;;;;;;-76
2022/08/30 15:34:20;;;;;;;;;;;;;;;31.19;30.54395;102256.8;;;;-76
2022/08/30 15:39:21;;;;;;;;;;;;;;;31.11;30.45605;102263.6;;;;-77
2022/08/30 15:44:19;;;;;;;;;;;;;;;31.02;30.34473;102255.8;;;;-77
2022/08/30 15:49:20;;;;;;;;;;;;;;;30.86;30.5332;102248.5;;;;-76
2022/08/30 15:54:23;;;;;;;;;;;;;;;30.67;31.13184;102241.8;;;;-75
2022/08/30 15:59:21;;;;;;;;;;;;;;;30.41;30.59766;102238.4;;;;-77
2022/08/30 16:01:36;;;;;;;1.6;0.8;;;;;;;;;;;;;-78
2022/08/30 16:04:21;;;;;;;;;;;;;;;30.11;31.01074;102227;;;;-77
2022/08/30 16:09:21;;;;;;;;;;;;;;;29.81;31.6123;102231.3;;;;-77
2022/08/30 16:14:18;;;;;;;;;;;;;;;29.49;31.88281;102227.8;;;;-76
2022/08/30 16:19:22;;;;;;;;;;;;;;;29.17;32.02344;102230.1;;;;-77
2022/08/30 16:24:22;;;;;;;;;;;;;;;28.92;32.38086;102228.7;;;;-75
2022/08/30 16:29:18;;;;;;;;;;;;;;;28.74;32.47266;102220.7;;;;-77
2022/08/30 16:31:42;;;;;;;2.5;0.8;;;;;;;;;;;;;-75
2022/08/30 16:34:19;;;;;;;;;;;;;;;28.62;32.33594;102218.2;;;;-78
2022/08/30 16:39:21;;;;;;;;;;;;;;;28.48;32.6875;102216.3;;;;-77
2022/08/30 16:44:19;;;;;;;;;;;;;;;28.25;32.75293;102211.7;;;;-77
2022/08/30 16:49:18;;;;;;;;;;;;;;;28.06;33.26465;102213;;;;-76
2022/08/30 16:54:18;;;;;;;;;;;;;;;27.85;33.7627;102209.1;;;;-76
2022/08/30 16:59:20;;;;;;;;;;;;;;;27.6;34.08203;102202.5;;;;-77
2022/08/30 17:01:49;;;;;;;2.4;0.8;;;;;;;;;;;;;-76
2022/08/30 17:04:21;;;;;;;;;;;;;;;27.37;34.55469;102207.7;;;;-76
2022/08/30 17:09:19;;;;;;;;;;;;;;;27.13;34.65234;102210.2;;;;-76
2022/08/30 17:14:23;;;;;;;;;;;;;;;26.87;35.04004;102211.4;;;;-76
2022/08/30 17:19:18;;;;;;;;;;;;;;;26.61;35.26367;102218.7;;;;-76
2022/08/30 17:24:21;;;;;;;;;;;;;;;26.39;35.38574;102219.3;;;;-77
2022/08/30 17:29:18;;;;;;;;;;;;;;;26.2;35.44043;102220.8;;;;-77
2022/08/30 17:31:49;;;;;;;1.6;0.8;;;;;;;;;;;;;-76
2022/08/30 17:34:20;;;;;;;;;;;;;;;26;35.76172;102224.3;;;;-78
2022/08/30 17:39:18;;;;;;;;;;;;;;;25.77;35.98828;102224.3;;;;-76
2022/08/30 17:44:19;;;;;;;;;;;;;;;25.54;36.22363;102228.1;;;;-76
2022/08/30 17:49:20;;;;;;;;;;;;;;;25.3;36.59863;102231.4;;;;-77
2022/08/30 17:54:19;;;;;;;;;;;;;;;25.05;37.00684;102243.1;;;;-76
2022/08/30 17:59:19;;;;;;;;;;;;;;;24.79;37.29785;102243.6;;;;-77
2022/08/30 18:01:52;;;;;;;2.9;0.9;;;;;;;;;;;;;-75
2022/08/30 18:04:19;;;;;;;;;;;;;;;24.52;37.69238;102243.6;;;;-75
2022/08/30 18:09:18;;;;;;;;;;;;;;;24.29;37.9502;102256.2;;;;-78
2022/08/30 18:14:21;;;;;;;;;;;;;;;24.02;38.44824;102259.2;;;;-77
2022/08/30 18:19:18;;;;;;;;;;;;;;;23.77;38.8418;102264.2;;;;-78
2022/08/30 18:24:18;;;;;;;;;;;;;;;23.51;39.31543;102265;;;;-80
2022/08/30 18:29:20;;;;;;;;;;;;;;;23.28;39.64063;102272.2;;;;-79
2022/08/30 18:31:56;;;;;;;3.5;0.9;;;;;;;;;;;;;-78
2022/08/30 18:34:21;;;;;;;;;;;;;;;23.03;40.08984;102279.5;;;;-78
2022/08/30 18:39:20;;;;;;;;;;;;;;;22.77;40.88477;102281.7;;;;-76
2022/08/30 18:44:18;;;;;;;;;;;;;;;22.53;41.39258;102284.8;;;;-76
2022/08/30 18:49:19;;;;;;;;;;;;;;;22.33;41.71777;102289.5;;;;-77
2022/08/30 18:54:18;;;;;;;;;;;;;;;22.14;41.9541;102295.8;;;;-76
2022/08/30 18:59:18;;;;;;;;;;;;;;;21.93;42.86426;102304.1;;;;-77
2022/08/30 19:01:59;;;;;;;2.1;1;;;;;;;;;;;;;-77
2022/08/30 19:04:19;;;;;;;;;;;;;;;21.71;43.77344;102305.4;;;;-76
2022/08/30 19:09:21;;;;;;;;;;;;;;;21.52;44.29297;102313.5;;;;-77
2022/08/30 19:14:18;;;;;;;;;;;;;;;21.34;45.2373;102313.2;;;;-77
2022/08/30 19:19:21;;;;;;;;;;;;;;;21.17;45.54199;102320.8;;;;-77
2022/08/30 19:24:18;;;;;;;;;;;;;;;21.03;45.89355;102319.6;;;;-77
2022/08/30 19:29:18;;;;;;;;;;;;;;;20.89;46.98828;102324;;;;-76
2022/08/30 19:32:01;;;;;;;3.3;1;;;;;;;;;;;;;-77
2022/08/30 19:34:18;;;;;;;;;;;;;;;20.76;47.02051;102323.1;;;;-75
2022/08/30 19:39:19;;;;;;;;;;;;;;;20.65;47.44336;102327.7;;;;-75
2022/08/30 19:44:18;;;;;;;;;;;;;;;20.53;47.69336;102334;;;;-78
2022/08/30 19:49:18;;;;;;;;;;;;;;;20.42;48.16211;102329.3;;;;-76
2022/08/30 19:54:18;;;;;;;;;;;;;;;20.33;48.71191;102333.6;;;;-76
2022/08/30 19:59:19;;;;;;;;;;;;;;;20.21;49.26953;102336.1;;;;-76
2022/08/30 20:02:04;;;;;;;3.7;1.3;;;;;;;;;;;;;-77
2022/08/30 20:04:18;;;;;;;;;;;;;;;20.14;49.58203;102343.5;;;;-77
2022/08/30 20:09:27;;;;;;;;;;;;;;;20.05;49.69629;102339.1;;;;-78
2022/08/30 20:14:18;;;;;;;;;;;;;;;19.98;49.76953;102335.4;;;;-77
2022/08/30 20:19:19;;;;;;;;;;;;;;;19.87;50.16797;102340.7;;;;-76
2022/08/30 20:24:19;;;;;;;;;;;;;;;19.79;50.375;102339;;;;-73
2022/08/30 20:29:19;;;;;;;;;;;;;;;19.69;50.23828;102333.6;;;;-76
2022/08/30 20:32:07;;;;;;;4.4;1.2;;;;;;;;;;;;;-77
2022/08/30 20:34:25;;;;;;;;;;;;;;;19.61;50.51367;102341.5;;;;-75
2022/08/30 20:39:18;;;;;;;;;;;;;;;19.52;50.95996;102342.5;;;;-75
2022/08/30 20:44:18;;;;;;;;;;;;;;;19.43;50.92578;102348.7;;;;-77
2022/08/30 20:49:19;;;;;;;;;;;;;;;19.32;51.18848;102361.9;;;;-75
2022/08/30 20:54:18;;;;;;;;;;;;;;;19.23;51.39355;102356.1;;;;-75
2022/08/30 20:59:21;;;;;;;;;;;;;;;19.16;51.52051;102355.5;;;;-75
2022/08/30 21:02:09;;;;;;;1.7;1;;;;;;;;;;;;;-76
2022/08/30 21:04:19;;;;;;;;;;;;;;;19.09;51.72852;102355.5;;;;-77
2022/08/30 21:09:18;;;;;;;;;;;;;;;19.03;51.67676;102357;;;;-75
2022/08/30 21:14:20;;;;;;;;;;;;;;;18.98;51.5918;102362.7;;;;-76
2022/08/30 21:19:18;;;;;;;;;;;;;;;18.9;51.66211;102367.5;;;;-76
2022/08/30 21:24:19;;;;;;;;;;;;;;;18.83;51.89258;102369.8;;;;-76
2022/08/30 21:29:18;;;;;;;;;;;;;;;18.76;51.9873;102369.8;;;;-76
2022/08/30 21:32:11;;;;;;;2.3;1.1;;;;;;;;;;;;;-76
2022/08/30 21:34:18;;;;;;;;;;;;;;;18.72;52.06152;102375.1;;;;-76
2022/08/30 21:39:20;;;;;;;;;;;;;;;18.67;52.05566;102375.2;;;;-75
2022/08/30 21:44:20;;;;;;;;;;;;;;;18.61;51.85547;102376.6;;;;-76
2022/08/30 21:49:19;;;;;;;;;;;;;;;18.57;51.91797;102382.7;;;;-75
2022/08/30 21:54:19;;;;;;;;;;;;;;;18.51;51.93555;102387.9;;;;-76
2022/08/30 21:59:19;;;;;;;;;;;;;;;18.47;52.27148;102396.7;;;;-76
2022/08/30 22:02:14;;;;;;;3.2;0.9;;;;;;;;;;;;;-76
2022/08/30 22:04:19;;;;;;;;;;;;;;;18.42;52.06152;102398.4;;;;-76
2022/08/30 22:09:19;;;;;;;;;;;;;;;18.37;52.03223;102398.2;;;;-75
2022/08/30 22:14:18;;;;;;;;;;;;;;;18.31;52.17285;102396.4;;;;-76
2022/08/30 22:19:18;;;;;;;;;;;;;;;18.29;52;102399.6;;;;-76
2022/08/30 22:24:18;;;;;;;;;;;;;;;18.24;51.9834;102395.2;;;;-75
2022/08/30 22:29:18;;;;;;;;;;;;;;;18.18;52.22559;102394.4;;;;-76
2022/08/30 22:32:16;;;;;;;2.5;0.9;;;;;;;;;;;;;-76
2022/08/30 22:34:18;;;;;;;;;;;;;;;18.13;52.15234;102396.3;;;;-76
2022/08/30 22:39:18;;;;;;;;;;;;;;;18.09;52.33984;102395;;;;-73
2022/08/30 22:44:18;;;;;;;;;;;;;;;18.07;52.46289;102398.2;;;;-75
2022/08/30 22:49:19;;;;;;;;;;;;;;;18.03;52.63965;102402;;;;-75
2022/08/30 22:54:20;;;;;;;;;;;;;;;17.98;52.65625;102398.7;;;;-75
2022/08/30 22:59:19;;;;;;;;;;;;;;;17.95;52.58496;102399.8;;;;-75
2022/08/30 23:02:19;;;;;;;1.4;0.8;;;;;;;;;;;;;-76
2022/08/30 23:04:18;;;;;;;;;;;;;;;17.94;52.62891;102399.1;;;;-76
2022/08/30 23:09:21;;;;;;;;;;;;;;;17.88;52.97266;102400.8;;;;-76
